Terminal Aerodrome Forecast
Issued by NWS

Home | Current Version | Previous Version | Text Only | Print | Product List | Glossary On
Versions: 1 2 3 4 5 6 7 8 9 10 11 12 13 14 15 16 17 18 19 20
000
FTUS43 KMQT 200500
TAFSAW
TAF
KSAW 200522Z 2006/2106 18010KT P6SM VCSH OVC050 WS010/20040KT
     FM200800 19009KT 4SM BR BKN025 WS012/21035KT
     FM201100 20006KT P6SM BKN020 WS012/24035KT
     FM201500 21009KT P6SM SCT030
     FM201900 04008KT P6SM SKC
     FM210100 VRB03KT P6SM SKC
      AMD LTD TO CLD VIS AND WIND TIL 201000=

USA.gov is the U.S. government's official web portal to all federal, state and local government web resources and services.